Time;durP1;ratioP1;P1;durP2;ratioP2;P2;SDS_P1;SDS_P2;PMS_P1;PMS_P2;Temp;Humidity;BMP_temperature;BMP_pressure;BME280_temperature;BME280_humidity;BME280_pressure;Samples;Min_cycle;Max_cycle;Signal;HPM_P1;HPM_P2
2022/06/20 00:00:21;;;;;;;5.97;1.40;;;24.80;39.90;;;;;;20997976;28;20500;-62
2022/06/20 00:10:44;;;;;;;5.95;1.77;;;24.60;40.00;;;;;;20999481;28;20072;-61
2022/06/20 00:21:05;;;;;;;3.42;1.02;;;24.70;40.10;;;;;;20999577;28;20055;-63
2022/06/20 00:31:27;;;;;;;1.80;1.20;;;24.60;40.10;;;;;;20995573;28;20051;-65
2022/06/20 00:41:49;;;;;;;5.40;1.50;;;24.50;40.30;;;;;;20999877;28;20098;-60
2022/06/20 00:52:27;;;;;;;5.05;1.50;;;24.40;40.20;;;;;;21011682;28;20044;-66
2022/06/20 01:02:56;;;;;;;2.55;1.17;;;24.40;40.50;;;;;;21009025;28;20060;-62
2022/06/20 01:13:21;;;;;;;5.13;1.30;;;24.20;40.70;;;;;;21009665;28;20040;-67
2022/06/20 01:24:23;;;;;;;3.40;1.40;;;24.20;40.90;;;;;;21006816;28;20044;-59
2022/06/20 01:34:44;;;;;;;9.00;2.22;;;24.10;40.90;;;;;;21006780;28;20110;-61
2022/06/20 01:45:57;;;;;;;5.10;1.60;;;24.00;41.30;;;;;;21010260;28;20049;-60
2022/06/20 01:55:51;;;;;;;4.28;1.55;;;23.90;41.70;;;;;;21006204;28;20052;-67
2022/06/20 02:06:14;;;;;;;4.95;1.60;;;;;;;;;;21007567;28;20097;-67
2022/06/20 02:16:39;;;;;;;4.57;1.30;;;;;;;;;;21006467;28;20052;-65
2022/06/20 02:27:02;;;;;;;6.25;1.60;;;;;;;;;;21005923;28;20052;-66
2022/06/20 02:37:25;;;;;;;3.03;1.15;;;;;;;;;;21004294;28;20056;-66
2022/06/20 02:47:50;;;;;;;3.40;1.10;;;24.70;40.40;;;;;;21005971;28;20110;-69
2022/06/20 02:58:20;;;;;;;5.28;1.00;;;23.50;42.90;;;;;;21001369;28;20052;-64
2022/06/20 03:08:41;;;;;;;4.13;1.60;;;23.40;43.20;;;;;;21005412;28;20048;-62
2022/06/20 03:19:03;;;;;;;4.40;1.10;;;23.40;43.50;;;;;;21000862;28;20090;-60
2022/06/20 03:29:25;;;;;;;4.90;1.20;;;23.30;43.70;;;;;;21000316;28;20072;-61
2022/06/20 03:39:47;;;;;;;3.70;1.00;;;23.10;44.20;;;;;;21002027;28;20109;-60
2022/06/20 03:50:20;;;;;;;6.15;1.42;;;23.10;44.40;;;;;;20997360;28;20484;-64
2022/06/20 04:00:57;;;;;;;4.57;1.30;;;23.10;44.70;;;;;;20999512;28;20473;-66
2022/06/20 04:11:23;;;;;;;3.30;1.20;;;23.00;45.20;;;;;;20998044;28;20045;-59
2022/06/20 04:21:47;;;;;;;4.00;1.35;;;22.90;45.40;;;;;;21010371;28;20056;-58
2022/06/20 04:32:20;;;;;;;4.38;1.50;;;22.70;45.70;;;;;;21010908;28;20378;-63
2022/06/20 04:42:49;;;;;;;4.05;1.38;;;22.70;45.80;;;;;;21008899;28;20053;-67
2022/06/20 04:53:15;;;;;;;3.67;1.15;;;22.80;45.80;;;;;;21009150;28;20443;-64
2022/06/20 05:03:44;;;;;;;6.32;1.58;;;22.70;45.90;;;;;;21007261;28;20048;-60
2022/06/20 05:14:34;;;;;;;3.88;1.35;;;22.80;45.70;;;;;;21006173;28;20048;-66
2022/06/20 05:24:59;;;;;;;2.85;1.38;;;22.80;46.10;;;;;;21004767;28;20049;-65
2022/06/20 05:35:30;;;;;;;6.32;1.80;;;22.90;46.00;;;;;;21004712;28;20057;-61
2022/06/20 05:45:54;;;;;;;7.95;2.08;;;23.10;45.90;;;;;;21005233;28;20055;-65
2022/06/20 05:56:22;;;;;;;6.55;1.90;;;22.90;45.60;;;;;;21004600;28;20536;-62
2022/06/20 06:06:48;;;;;;;6.25;2.13;;;23.50;44.60;;;;;;21004905;28;20471;-60
2022/06/20 06:17:49;;;;;;;8.85;2.85;;;22.90;45.50;;;;;;21002171;28;20051;-60
2022/06/20 06:28:17;;;;;;;5.72;2.45;;;23.00;45.50;;;;;;21005237;28;20056;-61
2022/06/20 06:38:52;;;;;;;6.45;2.33;;;23.00;45.30;;;;;;21001750;28;20101;-62
2022/06/20 06:49:33;;;;;;;9.10;2.42;;;23.20;45.30;;;;;;20998414;28;20080;-65
2022/06/20 07:00:15;;;;;;;7.97;2.20;;;24.10;44.10;;;;;;20997476;28;20055;-59
2022/06/20 07:10:45;;;;;;;5.15;1.65;;;24.50;43.40;;;;;;20998717;28;20051;-63
2022/06/20 07:21:10;;;;;;;10.43;1.75;;;24.70;43.40;;;;;;20997261;28;20052;-65
2022/06/20 07:31:50;;;;;;;8.77;1.75;;;25.30;42.80;;;;;;20996425;28;20485;-65
2022/06/20 07:42:27;;;;;;;7.95;1.45;;;25.30;43.20;;;;;;20995534;28;20063;-66
2022/06/20 07:52:55;;;;;;;5.47;1.60;;;25.70;42.40;;;;;;20995753;28;20412;-64
2022/06/20 08:03:36;;;;;;;7.05;1.50;;;26.20;41.40;;;;;;20995144;28;20049;-70
2022/06/20 08:13:57;;;;;;;3.28;1.48;;;26.80;40.20;;;;;;20995530;28;20055;-65
2022/06/20 08:24:27;;;;;;;7.00;1.73;;;26.60;39.90;;;;;;20996252;28;20044;-65
2022/06/20 08:35:08;;;;;;;6.75;1.77;;;26.70;39.30;;;;;;20993776;28;20489;-57
2022/06/20 08:45:12;;;;;;;11.18;1.58;;;27.20;38.60;;;;;;20898691;28;20051;-59
2022/06/20 08:55:35;;;;;;;8.80;4.13;;;27.70;37.80;;;;;;20898439;28;20057;-57
2022/06/20 09:06:14;;;;;;;5.10;1.98;;;27.80;37.70;;;;;;20906873;28;20099;-57
2022/06/20 09:16:26;;;;;;;4.70;1.30;;;27.30;38.30;;;;;;20939737;28;20053;-57
2022/06/20 09:26:43;;;;;;;4.70;1.67;;;27.60;37.60;;;;;;21002491;28;20534;-60
2022/06/20 09:37:15;;;;;;;3.90;1.00;;;27.60;37.50;;;;;;21001927;28;20094;-61
2022/06/20 09:47:21;;;;;;;5.72;1.20;;;27.20;38.20;;;;;;21000268;28;20399;-61
2022/06/20 09:57:28;;;;;;;5.05;1.00;;;27.30;37.60;;;;;;20994191;28;20132;-60
2022/06/20 10:07:34;;;;;;;;;;;27.10;37.70;;;;;;20983610;28;20137;-59
2022/06/20 10:18:23;;;;;;;2.92;0.82;;;27.40;37.40;;;;;;20946425;28;19927;-65
2022/06/20 10:28:58;;;;;;;2.75;1.35;;;27.60;35.80;;;;;;20968291;28;20044;-58
2022/06/20 10:39:40;;;;;;;3.55;1.10;;;27.70;35.10;;;;;;20985690;28;20109;-57
2022/06/20 10:50:09;;;;;;;5.82;0.93;;;28.00;34.70;;;;;;20985778;28;20401;-57
2022/06/20 11:00:38;;;;;;;2.42;1.00;;;27.90;34.80;;;;;;20992790;28;20052;-58
2022/06/20 11:11:15;;;;;;;10.35;1.58;;;27.80;34.90;;;;;;20981406;28;20048;-58
2022/06/20 11:21:49;;;;;;;5.18;1.83;;;28.00;34.60;;;;;;20990401;28;20044;-61
2022/06/20 11:32:25;;;;;;;3.45;0.80;;;28.10;33.90;;;;;;20990472;28;20036;-63
2022/06/20 11:42:46;;;;;;;;;;;28.60;33.30;;;;;;20984404;28;20060;-58
2022/06/20 11:53:41;;;;;;;2.95;1.17;;;28.90;33.00;;;;;;20991396;28;20395;-58
2022/06/20 12:04:13;;;;;;;2.92;1.08;;;29.00;32.70;;;;;;20990350;28;20048;-62
2022/06/20 12:15:18;;;;;;;4.38;1.00;;;28.80;32.40;;;;;;20989806;28;20047;-66
2022/06/20 12:26:05;;;;;;;4.53;0.80;;;29.00;31.60;;;;;;20909961;28;20052;-62
2022/06/20 12:36:50;;;;;;;4.47;1.03;;;29.10;30.90;;;;;;20914919;28;20057;-61
2022/06/20 12:47:47;;;;;;;4.80;0.82;;;29.20;31.60;;;;;;20926250;28;20512;-61
2022/06/20 12:58:25;;;;;;;3.60;1.00;;;29.20;31.40;;;;;;20925391;28;20511;-63
2022/06/20 13:09:08;;;;;;;3.05;1.10;;;29.00;32.20;;;;;;20924496;28;20045;-62
2022/06/20 13:19:31;;;;;;;3.80;1.00;;;29.20;32.30;;;;;;20923177;28;20489;-62
2022/06/20 13:29:54;;;;;;;3.65;1.00;;;29.20;32.50;;;;;;20923510;28;20072;-61
2022/06/20 13:40:29;;;;;;;2.67;0.70;;;29.60;32.30;;;;;;20921647;28;20061;-61
2022/06/20 13:51:07;;;;;;;3.83;0.82;;;29.50;32.50;;;;;;20920856;28;20409;-62
2022/06/20 14:01:41;;;;;;;4.05;1.05;;;29.20;32.70;;;;;;20919593;28;20049;-63
2022/06/20 14:12:07;;;;;;;3.95;0.95;;;29.20;32.80;;;;;;20919702;28;20482;-62
2022/06/20 14:22:34;;;;;;;3.43;0.97;;;29.20;32.70;;;;;;20917497;28;20056;-64
2022/06/20 14:33:27;;;;;;;4.05;0.80;;;28.80;33.10;;;;;;20918181;28;20114;-62
2022/06/20 14:43:50;;;;;;;12.02;1.60;;;29.20;32.80;;;;;;20920304;28;20126;-73
2022/06/20 14:54:18;;;;;;;6.53;4.07;;;28.80;33.60;;;;;;20923458;28;20045;-69
2022/06/20 15:04:48;;;;;;;6.45;1.35;;;28.80;33.60;;;;;;20918407;28;20045;-62
2022/06/20 15:15:33;;;;;;;3.10;0.70;;;28.70;34.10;;;;;;20914277;28;20048;-62
2022/06/20 15:26:07;;;;;;;2.30;0.83;;;28.40;33.70;;;;;;20915911;28;20114;-64
2022/06/20 15:36:40;;;;;;;4.07;0.80;;;28.40;34.00;;;;;;20913014;28;20056;-60
2022/06/20 15:47:24;;;;;;;2.97;0.88;;;28.20;33.90;;;;;;20913201;28;20057;-56
2022/06/20 15:57:45;;;;;;;7.35;1.13;;;27.90;33.70;;;;;;20911961;28;20052;-60
2022/06/20 16:08:15;;;;;;;3.35;1.17;;;27.90;33.50;;;;;;20911656;28;20050;-63
2022/06/20 16:18:51;;;;;;;2.78;0.65;;;27.70;33.40;;;;;;20928057;28;20466;-68
2022/06/20 16:29:20;;;;;;;3.30;1.50;;;27.20;34.10;;;;;;20928276;28;20053;-62
2022/06/20 16:39:43;;;;;;;6.30;1.00;;;27.30;34.10;;;;;;20927898;28;20052;-61
2022/06/20 16:50:16;;;;;;;2.95;0.88;;;27.20;35.00;;;;;;20926836;28;20428;-60
2022/06/20 17:00:44;;;;;;;2.83;1.48;;;;;;;;;;20925749;28;20053;-66
2022/06/20 17:11:05;;;;;;;2.92;0.80;;;;;;;;;;20928638;28;20057;-71
2022/06/20 17:21:28;;;;;;;6.03;2.38;;;;;;;;;;20924886;28;20053;-71
2022/06/20 17:31:46;;;;;;;2.67;0.73;;;;;;;;;;20926207;28;20509;-72
2022/06/20 17:41:54;;;;;;;2.83;1.17;;;;;;;;;;20924123;28;20061;-71
2022/06/20 17:52:06;;;;;;;5.53;2.17;;;;;;;;;;20923237;28;20053;-65
2022/06/20 18:02:21;;;;;;;2.58;0.70;;;;;;;;;;20921700;28;20057;-66
2022/06/20 18:12:40;;;;;;;2.42;0.80;;;;;;;;;;20920927;28;20079;-73
2022/06/20 18:22:45;;;;;;;2.03;0.70;;;;;;;;;;20920334;28;20059;-71
2022/06/20 18:32:52;;;;;;;2.97;0.95;;;;;;;;;;20917964;28;20406;-62
2022/06/20 18:42:57;;;;;;;3.28;0.95;;;;;;;;;;20916430;28;20061;-69
2022/06/20 18:53:00;;;;;;;2.75;0.77;;;;;;;;;;20946570;28;20514;-62
2022/06/20 19:03:07;;;;;;;5.18;0.77;;;;;;;;;;21004665;28;20059;-67
2022/06/20 19:13:17;;;;;;;9.45;1.55;;;;;;;;;;21003598;28;20056;-61
2022/06/20 19:23:46;;;;;;;2.78;0.85;;;;;;;;;;20998030;28;20149;-71
2022/06/20 19:33:53;;;;;;;4.00;0.63;;;;;;;;;;20995309;28;20053;-57
2022/06/20 19:43:56;;;;;;;5.53;0.90;;;;;;;;;;20993768;28;20446;-59
2022/06/20 19:54:03;;;;;;;2.30;0.98;;;;;;;;;;20995346;28;20044;-65
2022/06/20 20:04:05;;;;;;;5.63;1.20;;;;;;;;;;20992821;28;20060;-61
2022/06/20 20:14:12;;;;;;;4.25;0.90;;;29.10;30.80;;;;;;20993506;28;20044;-60
2022/06/20 20:24:28;;;;;;;4.88;1.20;;;28.20;33.30;;;;;;20992758;28;20049;-57
2022/06/20 20:34:46;;;;;;;4.78;3.33;;;28.10;33.90;;;;;;20992404;28;20049;-65
2022/06/20 20:44:55;;;;;;;3.33;1.30;;;;;;;;;;20993918;28;20048;-67
2022/06/20 20:54:58;;;;;;;3.75;1.00;;;;;;;;;;20996208;28;20083;-67
2022/06/20 21:05:09;;;;;;;5.03;0.85;;;;;;;;;;21008139;28;20094;-68
2022/06/20 21:15:45;;;;;;;1.90;1.02;;;;;;;;;;21066769;27;20412;-66
2022/06/20 21:26:05;;;;;;;3.03;1.13;;;;;;;;;;21039619;27;20406;-66
2022/06/20 21:36:45;;;;;;;3.28;0.90;;;;;;;;;;20985218;28;20048;-66
2022/06/20 21:47:17;;;;;;;2.75;1.02;;;;;;;;;;20985346;28;20497;-66
2022/06/20 21:57:35;;;;;;;4.20;1.23;;;;;;;;;;20984697;28;20554;-68
2022/06/20 22:07:46;;;;;;;3.45;1.30;;;;;;;;;;20981508;28;20382;-68
2022/06/20 22:18:00;;;;;;;4.13;1.20;;;;;;;;;;20980968;28;20048;-66
2022/06/20 22:28:03;;;;;;;4.22;1.20;;;;;;;;;;20976423;28;20409;-67
2022/06/20 22:38:05;;;;;;;2.35;0.80;;;;;;;;;;20925797;28;20053;-66
2022/06/20 22:48:12;;;;;;;4.03;1.40;;;;;;;;;;20924997;28;20053;-63
2022/06/20 22:58:17;;;;;;;6.60;1.00;;;;;;;;;;20921338;28;20053;-66
2022/06/20 23:08:19;;;;;;;7.32;1.45;;;;;;;;;;20921118;28;20124;-67
2022/06/20 23:28:45;;;;;;;4.20;1.75;;;;;;;;;;20921019;28;20052;-65
2022/06/20 23:38:51;;;;;;;5.03;1.15;;;24.60;32.30;;;;;;20919294;28;20049;-67
2022/06/20 23:48:53;;;;;;;4.38;1.27;;;24.40;32.40;;;;;;20917966;28;20128;-67
2022/06/20 23:58:56;;;;;;;5.38;2.47;;;24.00;32.80;;;;;;20917606;28;20045;-66
